Time;durP1;ratioP1;P1;durP2;ratioP2;P2;SDS_P1;SDS_P2;PMS_P1;PMS_P2;Temp;Humidity;BMP_temperature;BMP_pressure;BME280_temperature;BME280_humidity;BME280_pressure;Samples;Min_cycle;Max_cycle;Signal;HPM_P1;HPM_P2
2022/04/14 00:01:15;;;;;;;19.33;8.02;;;;;;;-149.78;100.00;50334.53;4892379;29;20041;-71
2022/04/14 00:03:40;;;;;;;16.13;6.95;;;;;;;-149.78;100.00;50352.16;4881735;29;20049;-71
2022/04/14 00:06:07;;;;;;;21.95;8.95;;;;;;;-149.78;100.00;50309.13;4895920;29;20033;-70
2022/04/14 00:08:32;;;;;;;16.38;8.38;;;;;;;-149.78;100.00;50326.72;4897972;29;20037;-71
2022/04/14 00:10:58;;;;;;;24.45;8.43;;;;;;;-149.78;100.00;50309.13;4896916;29;20101;-71
2022/04/14 00:13:24;;;;;;;17.50;7.95;;;;;;;-149.78;100.00;50346.28;4897283;29;20043;-71
2022/04/14 00:15:50;;;;;;;17.50;8.00;;;;;;;-149.78;100.00;50346.28;4898374;29;20040;-71
2022/04/14 00:18:16;;;;;;;19.75;8.10;;;;;;;-149.78;100.00;50303.25;4898278;29;20039;-71
2022/04/14 00:20:42;;;;;;;22.02;8.13;;;;;;;-149.78;100.00;50334.53;4893187;29;20107;-71
2022/04/14 00:23:08;;;;;;;25.20;9.63;;;;;;;-149.78;100.00;50338.44;4898245;29;20065;-71
2022/04/14 00:25:34;;;;;;;23.15;8.52;;;;;;;-149.78;100.00;50369.75;4898204;29;20028;-71
2022/04/14 00:27:59;;;;;;;17.98;8.02;;;;;;;-149.78;100.00;50342.38;4892971;29;20048;-71
2022/04/14 00:30:25;;;;;;;20.55;8.52;;;;;;;-149.78;100.00;50377.56;4898267;29;20482;-71
2022/04/14 00:32:51;;;;;;;20.27;8.18;;;;;;;-149.78;100.00;50365.84;4897952;29;20043;-71
2022/04/14 00:35:17;;;;;;;20.65;8.35;;;;;;;-149.78;100.00;50393.22;4894033;29;20060;-71
2022/04/14 00:37:43;;;;;;;20.73;7.82;;;;;;;-149.78;100.00;50342.38;4894803;29;20123;-71
2022/04/14 00:40:09;;;;;;;21.63;7.60;;;;;;;-149.78;100.00;50354.09;4880338;29;20037;-71
2022/04/14 00:42:35;;;;;;;21.65;7.78;;;;;;;-149.78;100.00;50342.38;4880257;29;20053;-71
2022/04/14 00:45:00;;;;;;;22.10;8.55;;;;;;;-149.78;100.00;50344.31;4879024;29;20041;-71
2022/04/14 00:47:28;;;;;;;22.38;8.73;;;;;;;-149.78;100.00;50328.69;4883988;29;20048;-71
2022/04/14 00:49:54;;;;;;;23.67;8.57;;;;;;;-149.78;100.00;50334.53;4898966;29;20040;-71
2022/04/14 00:52:22;;;;;;;21.83;8.32;;;;;;;-149.78;100.00;50354.09;4898846;29;20040;-71
2022/04/14 00:54:48;;;;;;;21.85;8.43;;;;;;;-149.78;100.00;50354.09;4897486;29;20404;-71
2022/04/14 00:57:14;;;;;;;23.13;9.00;;;;;;;-149.78;100.00;50361.91;4898712;29;20032;-71
2022/04/14 00:59:41;;;;;;;22.13;8.10;;;;;;;-149.78;100.00;50342.38;4897380;29;20044;-70
2022/04/14 01:02:09;;;;;;;20.48;8.15;;;;;;;-149.78;100.00;50330.63;4897349;29;20037;-71
2022/04/14 01:04:35;;;;;;;22.52;8.52;;;;;;;-149.78;100.00;50401.03;4898611;29;20392;-71
2022/04/14 01:07:01;;;;;;;29.27;8.18;;;;;;;-149.78;100.00;50365.84;4898496;29;20036;-71
2022/04/14 01:09:29;;;;;;;23.15;8.32;;;;;;;-149.78;100.00;50393.22;4898702;29;20397;-71
2022/04/14 01:11:55;;;;;;;23.02;7.60;;;;;;;-149.78;100.00;50352.16;4898514;29;20040;-71
2022/04/14 01:14:35;;;;;;;17.98;7.38;;;;;;;-149.78;100.00;50385.38;4897594;29;20485;-71
2022/04/14 01:17:02;;;;;;;15.93;7.28;;;;;;;-149.78;100.00;50318.91;4898546;29;20033;-71
2022/04/14 01:19:28;;;;;;;15.13;7.20;;;;;;;-149.78;100.00;50285.66;4898410;29;20127;-71
2022/04/14 01:22:30;;;;;;;19.35;8.10;;;;;;;-149.78;100.00;50391.25;4897881;29;20115;-70
2022/04/14 01:24:57;;;;;;;24.13;7.18;;;;;;;-149.78;100.00;50361.91;4885949;29;20076;-70
2022/04/14 01:27:25;;;;;;;15.32;6.40;;;;;;;-149.78;100.00;50373.66;4898492;29;20048;-71
2022/04/14 01:29:52;;;;;;;18.55;7.20;;;;;;;-149.78;100.00;50354.09;4897081;29;20054;-71
2022/04/14 01:32:22;;;;;;;19.17;6.45;;;;;;;-149.78;100.00;50367.78;4898134;29;20040;-70
2022/04/14 01:34:49;;;;;;;17.48;6.63;;;;;;;-149.78;100.00;50330.63;4898049;29;20040;-70
2022/04/14 01:37:15;;;;;;;22.42;7.18;;;;;;;-149.78;100.00;50350.19;4881285;29;20136;-69
2022/04/14 01:39:41;;;;;;;16.75;6.03;;;;;;;-149.78;100.00;50397.13;4897814;29;20048;-69
2022/04/14 01:42:09;;;;;;;15.07;6.35;;;;;;;-149.78;100.00;50365.84;4897654;29;20417;-69
2022/04/14 01:44:35;;;;;;;13.32;5.25;;;;;;;-149.78;100.00;50371.69;4897742;29;20049;-69
2022/04/14 01:47:02;;;;;;;14.52;5.03;;;;;;;-149.78;100.00;50416.69;4896595;29;20041;-69
2022/04/14 01:49:27;;;;;;;12.82;5.05;;;;;;;-149.78;100.00;50365.84;4897975;29;20119;-70
2022/04/14 01:51:53;;;;;;;15.57;4.65;;;;;;;-149.78;100.00;50381.47;4896526;29;20199;-69
2022/04/14 01:54:19;;;;;;;12.68;4.30;;;;;;;-149.78;100.00;50371.69;4897654;29;20048;-69
2022/04/14 01:56:46;;;;;;;12.82;4.43;;;;;;;-149.78;100.00;50354.09;4864127;29;20039;-69
2022/04/14 01:59:12;;;;;;;11.60;4.25;;;;;;;-149.78;100.00;50342.38;4894124;29;20115;-69
2022/04/14 02:01:38;;;;;;;10.02;4.28;;;;;;;-149.78;100.00;50369.75;4896315;29;20540;-69
2022/04/14 02:04:07;;;;;;;11.88;4.18;;;;;;;-149.78;100.00;50375.63;4891038;29;20036;-69
2022/04/14 02:06:33;;;;;;;11.35;4.65;;;;;;;-149.78;100.00;50387.34;4896357;29;20067;-70
2022/04/14 02:08:59;;;;;;;10.55;4.32;;;;;;;-149.78;100.00;50346.28;4889957;29;20041;-69
2022/04/14 02:11:24;;;;;;;10.65;4.40;;;;;;;-149.78;100.00;50373.66;4891209;29;20096;-69
2022/04/14 02:13:50;;;;;;;12.48;4.13;;;;;;;-149.78;100.00;50361.91;4894985;29;20028;-69
2022/04/14 02:16:16;;;;;;;11.60;4.55;;;;;;;-149.78;100.00;50361.91;4893819;29;20043;-70
2022/04/14 02:18:42;;;;;;;14.10;4.97;;;;;;;-149.78;100.00;50385.38;4894249;29;20041;-70
2022/04/14 02:21:08;;;;;;;12.10;4.53;;;;;;;-149.78;100.00;50381.47;4892160;29;20092;-69
2022/04/14 02:23:34;;;;;;;13.32;4.28;;;;;;;-149.78;100.00;50365.84;4890516;29;20033;-69
2022/04/14 02:26:00;;;;;;;12.55;3.95;;;;;;;-149.78;100.00;50389.31;4890427;29;20577;-70
2022/04/14 02:28:25;;;;;;;15.07;4.82;;;;;;;-149.78;100.00;50358.00;4888346;29;20045;-69
2022/04/14 02:30:51;;;;;;;8.05;4.13;;;;;;;-149.78;100.00;50342.38;4910447;29;20049;-69
2022/04/14 02:33:17;;;;;;;9.50;4.05;;;;;;;-149.78;100.00;50416.69;4894012;29;20067;-69
2022/04/14 02:35:43;;;;;;;13.85;5.35;;;;;;;-149.78;100.00;50373.66;4893279;29;20053;-69
2022/04/14 02:38:09;;;;;;;13.95;6.63;;;;;;;-149.78;100.00;50369.75;4908889;29;20032;-69
2022/04/14 02:40:35;;;;;;;20.60;8.13;;;;;;;-149.78;100.00;50361.91;4898784;29;20043;-70
2022/04/14 02:43:00;;;;;;;33.55;12.18;;;;;;;-149.78;100.00;50359.97;4901065;29;20044;-70
2022/04/14 02:45:27;;;;;;;38.03;14.52;;;;;;;-149.78;100.00;50330.63;4898581;29;20080;-69
2022/04/14 02:47:54;;;;;;;38.17;16.13;;;;;;;-149.78;100.00;50346.28;4896656;29;20039;-70
2022/04/14 02:50:20;;;;;;;38.22;15.98;;;;;;;-149.78;100.00;50369.75;4889016;29;20041;-70
2022/04/14 02:52:47;;;;;;;50.15;17.05;;;;;;;-149.78;100.00;50352.16;4893559;29;20044;-70
2022/04/14 02:55:13;;;;;;;37.83;15.02;;;;;;;-149.78;100.00;50381.47;4896778;29;20063;-70
2022/04/14 02:57:39;;;;;;;38.53;14.82;;;;;;;-149.78;100.00;50361.91;4900747;29;20056;-69
2022/04/14 03:00:06;;;;;;;46.25;15.57;;;;;;;-149.78;100.00;50344.31;4894094;29;20502;-69
2022/04/14 03:02:32;;;;;;;37.90;14.45;;;;;;;-149.78;100.00;50404.94;4899116;29;20123;-69
2022/04/14 03:04:58;;;;;;;35.85;13.55;;;;;;;-149.78;100.00;50330.63;4891456;29;20039;-69
2022/04/14 03:07:24;;;;;;;38.70;13.80;;;;;;;-149.78;100.00;50377.56;4893315;29;20052;-69
2022/04/14 03:09:50;;;;;;;36.42;13.48;;;;;;;-149.78;100.00;50361.91;4900480;29;20037;-69
2022/04/14 03:12:16;;;;;;;38.72;15.18;;;;;;;-149.78;100.00;50340.41;4900292;29;20127;-70
2022/04/14 03:14:43;;;;;;;34.92;13.80;;;;;;;-149.78;100.00;50373.66;4893811;29;20059;-69
2022/04/14 03:17:09;;;;;;;32.15;13.23;;;;;;;-149.78;100.00;50359.97;4896599;29;20088;-69
2022/04/14 03:19:36;;;;;;;38.83;13.52;;;;;;;-149.78;100.00;50440.16;4896270;29;20119;-69
2022/04/14 03:22:02;;;;;;;35.95;12.65;;;;;;;-149.78;100.00;50354.09;4905211;29;20037;-70
2022/04/14 03:24:28;;;;;;;29.65;12.10;;;;;;;-149.78;100.00;50389.31;4890763;29;20100;-70
2022/04/14 03:26:54;;;;;;;36.85;13.32;;;;;;;-149.78;100.00;50395.16;4883833;29;20045;-70
2022/04/14 03:29:20;;;;;;;32.70;12.82;;;;;;;-149.78;100.00;50381.47;4881638;29;20116;-69
2022/04/14 03:31:45;;;;;;;33.58;12.63;;;;;;;-149.78;100.00;50377.56;4882488;29;20148;-69
2022/04/14 03:34:11;;;;;;;30.73;11.90;;;;;;;-149.78;100.00;50356.06;4907681;29;20044;-69
2022/04/14 03:36:37;;;;;;;32.15;12.18;;;;;;;-149.78;100.00;50381.47;4880623;29;20442;-69
2022/04/14 03:39:04;;;;;;;35.65;13.15;;;;;;;-149.78;100.00;50389.31;4895447;29;20032;-69
2022/04/14 03:41:29;;;;;;;30.05;12.15;;;;;;;-149.78;100.00;50369.75;4898129;29;20552;-69
2022/04/14 03:43:55;;;;;;;35.33;12.68;;;;;;;-149.78;100.00;50373.66;4897428;29;20076;-69
2022/04/14 03:46:21;;;;;;;33.85;12.13;;;;;;;-149.78;100.00;50389.31;4895756;29;20471;-69
2022/04/14 03:48:47;;;;;;;37.33;12.77;;;;;;;-149.78;100.00;50404.94;4895039;29;20112;-70
2022/04/14 03:51:14;;;;;;;27.60;11.70;;;;;;;-149.78;100.00;50365.84;4907818;29;20025;-69
2022/04/14 03:53:43;;;;;;;27.08;11.07;;;;;;;-149.78;100.00;50385.38;4902264;29;20029;-70
2022/04/14 03:56:10;;;;;;;32.30;12.25;;;;;;;-149.78;100.00;50401.03;4899653;29;20032;-69
2022/04/14 03:58:37;;;;;;;30.88;11.85;;;;;;;-149.78;100.00;50387.34;4898519;29;20032;-70
2022/04/14 04:01:03;;;;;;;29.35;12.02;;;;;;;-149.78;100.00;50365.84;4894214;29;20046;-69
2022/04/14 04:03:28;;;;;;;28.17;11.38;;;;;;;-149.78;100.00;50391.25;4893934;29;20033;-70
2022/04/14 04:05:54;;;;;;;30.65;11.57;;;;;;;-149.78;100.00;50391.25;4896070;29;20033;-69
2022/04/14 04:08:21;;;;;;;28.15;11.60;;;;;;;-149.78;100.00;50412.78;4894576;29;20425;-69
2022/04/14 04:10:48;;;;;;;29.40;11.45;;;;;;;-149.78;100.00;50369.75;4897243;29;20033;-70
2022/04/14 04:13:13;;;;;;;29.60;12.25;;;;;;;-149.78;100.00;50393.22;4890729;29;20048;-69
2022/04/14 04:15:39;;;;;;;30.25;12.48;;;;;;;-149.78;100.00;50385.38;4892989;29;20540;-69
2022/04/14 04:18:06;;;;;;;32.95;12.48;;;;;;;-149.78;100.00;50354.09;4907136;29;20033;-71
2022/04/14 04:20:32;;;;;;;31.52;13.50;;;;;;;-149.78;100.00;50399.09;4904569;29;20045;-69
2022/04/14 04:22:58;;;;;;;31.35;11.68;;;;;;;-149.78;100.00;50389.31;4890371;29;20041;-69
2022/04/14 04:25:24;;;;;;;40.60;14.10;;;;;;;-149.78;100.00;50381.47;4887186;29;20044;-70
2022/04/14 04:27:49;;;;;;;43.80;13.73;;;;;;;-149.78;100.00;50401.03;4889945;29;20032;-70
2022/04/14 04:30:15;;;;;;;34.72;12.95;;;;;;;-149.78;100.00;50387.34;4889892;29;20504;-69
2022/04/14 04:32:41;;;;;;;37.83;13.75;;;;;;;-149.78;100.00;50385.38;4901655;29;20432;-69
2022/04/14 04:35:07;;;;;;;36.30;13.07;;;;;;;-149.78;100.00;50397.13;4892243;29;20595;-69
2022/04/14 04:37:33;;;;;;;42.08;13.57;;;;;;;-149.78;100.00;50381.47;4890936;29;20036;-69
2022/04/14 04:39:58;;;;;;;35.10;13.82;;;;;;;-149.78;100.00;50399.09;4880000;29;20064;-69
2022/04/14 04:42:24;;;;;;;33.28;13.45;;;;;;;-149.78;100.00;50381.47;4880048;29;20056;-69
2022/04/14 04:44:50;;;;;;;41.67;14.63;;;;;;;-149.78;100.00;50397.13;4880322;29;20037;-69
2022/04/14 04:47:20;;;;;;;38.97;13.98;;;;;;;-149.78;100.00;50375.63;4886640;29;20028;-69
2022/04/14 04:49:46;;;;;;;40.88;14.18;;;;;;;-149.78;100.00;50358.00;4898945;29;20028;-70
2022/04/14 04:52:12;;;;;;;44.28;15.43;;;;;;;-149.78;100.00;50340.41;4897895;29;20112;-69
2022/04/14 04:54:38;;;;;;;39.55;13.98;;;;;;;-149.78;100.00;50377.56;4898611;29;20221;-69
2022/04/14 04:57:04;;;;;;;38.22;13.88;;;;;;;-149.78;100.00;50385.38;4884850;29;20028;-69
2022/04/14 04:59:31;;;;;;;38.08;14.32;;;;;;;-149.78;100.00;50352.16;4887666;29;20146;-69
2022/04/14 05:01:56;;;;;;;32.53;13.43;;;;;;;-149.78;100.00;50358.00;4881849;29;20041;-69
2022/04/14 05:04:22;;;;;;;37.35;13.98;;;;;;;-149.78;100.00;50401.03;4888266;29;20078;-69
2022/04/14 05:06:47;;;;;;;35.70;13.52;;;;;;;-149.78;100.00;50389.31;4862334;29;20041;-70
2022/04/14 05:09:13;;;;;;;34.10;13.27;;;;;;;-149.78;100.00;50383.44;4900825;29;20524;-70
2022/04/14 05:11:39;;;;;;;31.17;13.25;;;;;;;-149.78;100.00;50363.88;4891584;29;20036;-69
2022/04/14 05:14:04;;;;;;;31.65;12.82;;;;;;;-149.78;100.00;50354.09;4897008;29;20073;-69
2022/04/14 05:16:30;;;;;;;36.20;13.13;;;;;;;-149.78;100.00;50397.13;4897177;29;20044;-69
2022/04/14 05:18:55;;;;;;;34.92;13.45;;;;;;;-149.78;100.00;50397.13;4881539;29;20058;-69
2022/04/14 05:21:21;;;;;;;37.47;14.15;;;;;;;-149.78;100.00;50404.94;4898203;29;20457;-69
2022/04/14 05:23:46;;;;;;;32.10;13.57;;;;;;;-149.78;100.00;50381.47;4881466;29;20037;-69
2022/04/14 05:26:12;;;;;;;30.92;12.40;;;;;;;-149.78;100.00;50393.22;4879488;29;20044;-69
2022/04/14 05:28:38;;;;;;;39.90;13.85;;;;;;;-149.78;100.00;50401.03;4879591;29;20626;-69
2022/04/14 05:31:03;;;;;;;35.25;13.13;;;;;;;-149.78;100.00;50363.88;4879647;29;20116;-69
2022/04/14 05:33:29;;;;;;;35.17;13.68;;;;;;;-149.78;100.00;50387.34;4879389;29;20045;-69
2022/04/14 05:35:54;;;;;;;32.78;13.93;;;;;;;-149.78;100.00;50369.75;4879493;29;20493;-69
2022/04/14 05:38:20;;;;;;;36.53;13.77;;;;;;;-149.78;100.00;50365.84;4879161;29;20043;-69
2022/04/14 05:40:46;;;;;;;37.30;13.93;;;;;;;-149.78;100.00;50387.34;4879342;29;20048;-69
2022/04/14 05:43:24;;;;;;;30.88;13.20;;;;;;;-149.78;100.00;50381.47;4883464;29;20056;-69
2022/04/14 05:45:51;;;;;;;40.55;13.05;;;;;;;-149.78;100.00;50381.47;4890148;29;20071;-69
2022/04/14 05:48:18;;;;;;;32.78;14.93;;;;;;;-149.78;100.00;50385.38;4889067;29;21358;-69
2022/04/14 05:50:44;;;;;;;34.85;13.55;;;;;;;-149.78;100.00;50367.78;4895440;29;20484;-70
2022/04/14 05:53:11;;;;;;;33.75;13.02;;;;;;;-149.78;100.00;50342.38;4897172;29;20370;-69
2022/04/14 05:55:36;;;;;;;35.78;13.02;;;;;;;-149.78;100.00;50358.00;4896798;29;20127;-69
2022/04/14 05:58:03;;;;;;;33.92;13.07;;;;;;;-149.78;100.00;50397.13;4895377;29;20055;-69
2022/04/14 06:00:31;;;;;;;28.65;13.10;;;;;;;-149.78;100.00;50358.00;4892289;29;20036;-70
2022/04/14 06:02:59;;;;;;;30.05;13.90;;;;;;;-149.78;100.00;50401.03;4890478;29;20044;-70
2022/04/14 06:05:28;;;;;;;36.35;13.98;;;;;;;-149.78;100.00;50369.75;4893457;29;20036;-69
2022/04/14 06:07:54;;;;;;;37.97;14.70;;;;;;;-149.78;100.00;50381.47;4888089;29;20036;-69
2022/04/14 06:10:21;;;;;;;35.67;14.95;;;;;;;-149.78;100.00;50377.56;4877588;29;20037;-70
2022/04/14 06:12:47;;;;;;;32.58;14.00;;;;;;;-149.78;100.00;50358.00;4878961;29;20043;-69
2022/04/14 06:15:13;;;;;;;36.65;15.68;;;;;;;-149.78;100.00;50354.09;4878835;29;20055;-69
2022/04/14 06:17:39;;;;;;;41.42;15.48;;;;;;;-149.78;100.00;50354.09;4878790;29;20493;-69
2022/04/14 06:20:06;;;;;;;39.65;15.95;;;;;;;-149.78;100.00;50365.84;4897315;29;20033;-70
2022/04/14 06:22:43;;;;;;;38.60;16.80;;;;;;;-149.78;100.00;50342.38;4886896;29;20586;-70
2022/04/14 06:25:13;;;;;;;31.27;15.77;;;;;;;-149.78;100.00;50342.38;4883661;29;20538;-70
2022/04/14 06:27:44;;;;;;;34.42;14.98;;;;;;;-149.78;100.00;50338.44;4888431;29;20063;-70
2022/04/14 06:30:11;;;;;;;41.72;17.65;;;;;;;-149.78;100.00;50330.63;4877045;29;20055;-70
2022/04/14 06:32:37;;;;;;;35.42;17.02;;;;;;;-149.78;100.00;50334.53;4881514;29;20752;-69
2022/04/14 06:35:06;;;;;;;37.83;16.95;;;;;;;-149.78;100.00;50348.22;4885160;29;20039;-69
2022/04/14 06:37:35;;;;;;;35.08;16.08;;;;;;;-149.78;100.00;50311.06;4895203;29;20500;-69
2022/04/14 06:40:02;;;;;;;34.85;15.63;;;;;;;-149.78;100.00;50318.91;4897167;29;20037;-69
2022/04/14 06:42:28;;;;;;;32.13;15.00;;;;;;;-149.78;100.00;50322.81;4895203;29;20516;-70
2022/04/14 06:45:00;;;;;;;31.98;15.57;;;;;;;-149.78;100.00;50307.16;4884448;29;20102;-69
2022/04/14 06:47:29;;;;;;;30.73;15.18;;;;;;;-149.78;100.00;50326.72;4876081;29;20124;-69
2022/04/14 06:49:55;;;;;;;36.05;15.60;;;;;;;-149.78;100.00;50268.03;4897117;29;20039;-69
2022/04/14 06:52:23;;;;;;;35.97;15.77;;;;;;;-149.78;100.00;50279.78;4885316;29;20033;-69
2022/04/14 06:54:49;;;;;;;39.65;15.10;;;;;;;-149.78;100.00;50271.97;4906508;29;20033;-70
2022/04/14 06:57:16;;;;;;;34.83;15.23;;;;;;;-149.78;100.00;50279.78;4878827;29;20438;-69
2022/04/14 06:59:41;;;;;;;37.25;15.40;;;;;;;-149.78;100.00;50299.34;4895861;29;20055;-69
2022/04/14 07:02:07;;;;;;;33.90;14.23;;;;;;;-149.78;100.00;50299.34;4895867;29;20032;-69
2022/04/14 07:04:34;;;;;;;30.73;13.25;;;;;;;-149.78;100.00;50297.38;4893210;29;20048;-69
2022/04/14 07:07:00;;;;;;;34.80;12.98;;;;;;;-149.78;100.00;50287.59;4889932;29;20149;-69
2022/04/14 07:09:29;;;;;;;27.08;11.93;;;;;;;-149.78;100.00;50291.50;4888849;29;20056;-69
2022/04/14 07:11:56;;;;;;;28.58;12.38;;;;;;;-149.78;100.00;50283.69;4895819;29;20051;-69
2022/04/14 07:14:21;;;;;;;30.73;12.38;;;;;;;-149.78;100.00;50264.13;4888877;29;20092;-69
2022/04/14 07:16:47;;;;;;;26.77;11.65;;;;;;;-149.78;100.00;50299.34;4887612;29;20036;-69
2022/04/14 07:19:13;;;;;;;28.77;13.48;;;;;;;-149.78;100.00;50291.50;4887436;29;20100;-70
2022/04/14 07:21:39;;;;;;;35.83;13.15;;;;;;;-149.78;100.00;50287.59;4891301;29;20461;-69
2022/04/14 07:24:05;;;;;;;30.63;12.95;;;;;;;-149.78;100.00;50285.66;4881643;29;20044;-69
2022/04/14 07:26:31;;;;;;;33.38;13.93;;;;;;;-149.78;100.00;50299.34;4891624;29;20037;-69
2022/04/14 07:28:56;;;;;;;29.63;14.25;;;;;;;-149.78;100.00;50299.34;4892170;29;20044;-69
2022/04/14 07:31:22;;;;;;;31.00;14.48;;;;;;;-149.78;100.00;50322.81;4892458;29;20037;-72
2022/04/14 07:33:48;;;;;;;33.50;13.80;;;;;;;-149.78;100.00;50285.66;4902833;29;20033;-68
2022/04/14 07:36:19;;;;;;;33.33;13.18;;;;;;;-149.78;100.00;50264.13;4888839;29;20540;-70
2022/04/14 07:38:45;;;;;;;30.80;12.70;;;;;;;-149.78;100.00;50283.69;4890317;29;20048;-71
2022/04/14 07:41:11;;;;;;;32.90;13.95;;;;;;;-149.78;100.00;50289.56;4889012;29;20044;-71
2022/04/14 07:43:37;;;;;;;24.08;11.52;;;;;;;-149.78;100.00;50264.13;4884867;29;20218;-70
2022/04/14 07:46:03;;;;;;;30.45;11.98;;;;;;;-149.78;100.00;50254.34;4872468;29;20545;-70
2022/04/14 07:48:30;;;;;;;29.30;12.18;;;;;;;-149.78;100.00;50264.13;4889580;29;20033;-70
2022/04/14 07:50:55;;;;;;;29.05;12.00;;;;;;;-149.78;100.00;50240.66;4875387;29;20028;-70
2022/04/14 07:53:21;;;;;;;25.10;12.40;;;;;;;-149.78;100.00;50264.13;4887672;29;20085;-71
2022/04/14 07:55:47;;;;;;;24.75;11.48;;;;;;;-149.78;100.00;50268.03;4888725;29;20128;-71
2022/04/14 07:58:13;;;;;;;24.65;11.38;;;;;;;-149.78;100.00;50268.03;4884205;29;20033;-70
2022/04/14 08:00:40;;;;;;;22.27;10.75;;;;;;;-149.78;100.00;50256.31;4891256;29;20503;-71
2022/04/14 08:03:07;;;;;;;27.48;12.25;;;;;;;-149.78;100.00;50262.19;4885450;29;20123;-71
2022/04/14 08:05:38;;;;;;;24.10;10.52;;;;;;;-149.78;100.00;50236.75;4900219;29;20664;-71
2022/04/14 08:08:10;;;;;;;24.58;10.43;;;;;;;-149.78;100.00;50217.19;4891664;29;20048;-71
2022/04/14 08:10:37;;;;;;;29.02;11.27;;;;;;;-149.78;100.00;50283.69;4887653;29;20119;-71
2022/04/14 08:13:03;;;;;;;22.30;10.75;;;;;;;-149.78;100.00;50277.81;4888603;29;20177;-70
2022/04/14 08:15:30;;;;;;;27.02;10.00;;;;;;;-149.78;100.00;50236.75;4886104;29;20040;-71
2022/04/14 08:17:57;;;;;;;22.00;10.07;;;;;;;-149.78;100.00;50236.75;4887975;29;20065;-71
2022/04/14 08:20:23;;;;;;;19.42;9.95;;;;;;;-149.78;100.00;50228.94;4891338;29;20029;-71
2022/04/14 08:22:56;;;;;;;20.88;11.27;;;;;;;-149.78;100.00;50225.03;4878314;29;20066;-71
2022/04/14 08:25:24;;;;;;;19.75;10.73;;;;;;;-149.78;100.00;50283.69;4885767;29;20560;-71
2022/04/14 08:27:51;;;;;;;17.73;9.27;;;;;;;-149.78;100.00;50201.56;4877987;29;20052;-71
2022/04/14 08:30:19;;;;;;;21.17;9.50;;;;;;;-149.78;100.00;50213.28;4880706;29;20072;-71
2022/04/14 08:32:46;;;;;;;24.33;10.05;;;;;;;-149.78;100.00;50234.81;4879023;29;20115;-71
2022/04/14 08:35:13;;;;;;;19.23;9.95;;;;;;;-149.78;100.00;50197.66;4879773;29;20424;-70
2022/04/14 08:37:40;;;;;;;25.48;10.10;;;;;;;-149.78;100.00;50174.19;4880261;29;20088;-71
2022/04/14 08:40:08;;;;;;;24.23;10.50;;;;;;;-149.78;100.00;50158.53;4902774;29;20033;-71
2022/04/14 08:42:39;;;;;;;17.02;9.27;;;;;;;-149.78;100.00;50138.97;4895270;29;20128;-71
2022/04/14 08:45:09;;;;;;;21.80;10.20;;;;;;;-149.78;100.00;50080.31;4889489;29;20092;-71
2022/04/14 08:47:36;;;;;;;20.08;9.90;;;;;;;-149.78;100.00;50017.72;4896101;29;20384;-71
2022/04/14 08:50:07;;;;;;;16.38;9.65;;;;;;;-149.78;100.00;50052.94;4893484;29;20071;-71
2022/04/14 08:52:35;;;;;;;16.27;9.23;;;;;;;-149.78;100.00;50072.50;4887930;29;20041;-72
2022/04/14 08:55:10;;;;;;;16.20;10.00;;;;;;;-149.78;100.00;50094.00;4892269;29;20024;-72
2022/04/14 08:57:36;;;;;;;15.18;9.20;;;;;;;-149.78;100.00;50064.66;4892424;29;20116;-72
2022/04/14 09:00:09;;;;;;;19.58;9.55;;;;;;;-149.78;100.00;50068.56;4888163;29;20470;-72
2022/04/14 09:02:35;;;;;;;17.30;9.25;;;;;;;-149.78;100.00;50062.72;4890716;29;20037;-71
2022/04/14 09:05:02;;;;;;;16.38;9.13;;;;;;;-149.78;100.00;50045.09;4892658;29;20533;-72
2022/04/14 09:07:27;;;;;;;14.02;8.93;;;;;;;-149.78;100.00;49994.25;4895190;29;20039;-72
2022/04/14 09:09:53;;;;;;;13.63;8.65;;;;;;;-149.78;100.00;49998.19;4891285;29;20040;-72
2022/04/14 09:12:19;;;;;;;15.07;9.32;;;;;;;-149.78;100.00;49947.34;4892920;29;20044;-70
2022/04/14 09:14:46;;;;;;;18.10;10.65;;;;;;;-149.78;100.00;50017.72;4890221;29;20488;-68
2022/04/14 09:17:11;;;;;;;11.25;7.95;;;;;;;-149.78;92.19;49947.34;4883809;29;20033;-69
2022/04/14 09:19:38;;;;;;;13.70;8.50;;;;;;;-149.78;74.00;49921.91;4898886;29;20176;-69
2022/04/14 09:22:05;;;;;;;11.25;7.93;;;;;;;-149.78;72.43;49966.88;4888688;29;20115;-69
2022/04/14 09:24:49;;;;;;;9.02;6.80;;;;;;;-149.78;63.55;49959.06;4888179;29;20032;-71
2022/04/14 09:27:32;;;;;;;12.60;6.75;;;;;;;-149.78;63.27;49978.63;4893051;29;20033;-69
2022/04/14 09:30:03;;;;;;;12.02;6.65;;;;;;;-149.78;60.09;50006.00;4893734;29;20029;-74
2022/04/14 09:32:42;;;;;;;11.57;7.13;;;;;;;-149.78;62.99;49990.34;4889574;29;20484;-71
2022/04/14 09:35:20;;;;;;;10.48;6.22;;;;;;;-149.78;61.36;50029.47;4881956;29;20298;-71
2022/04/14 09:37:46;;;;;;;11.60;6.07;;;;;;;-149.78;62.08;50017.72;4883777;29;20032;-70
2022/04/14 09:40:12;;;;;;;6.88;4.55;;;;;;;-149.78;57.07;50033.38;4887216;29;20036;-71
2022/04/14 09:42:43;;;;;;;7.18;4.40;;;;;;;-149.78;54.86;50017.72;4890527;29;20639;-70
2022/04/14 09:45:23;;;;;;;7.57;3.65;;;;;;;-149.78;51.97;49978.63;4887378;29;20032;-70
2022/04/14 09:47:50;;;;;;;7.47;2.95;;;;;;;-149.78;48.78;49951.25;4886993;29;20044;-70
2022/04/14 09:50:27;;;;;;;9.48;3.83;;;;;;;-149.78;51.21;50021.63;4886191;29;20394;-72
2022/04/14 09:53:13;;;;;;;6.50;3.88;;;;;;;-149.78;52.30;49990.34;4881619;29;20457;-73
2022/04/14 09:55:42;;;;;;;8.88;4.20;;;;;;;-149.78;54.04;49978.63;4882651;29;20040;-72
2022/04/14 09:58:13;;;;;;;5.82;2.97;;;;;;;-149.78;49.43;49986.44;4887372;29;20071;-72
2022/04/14 10:00:46;;;;;;;4.25;2.85;;;;;;;-149.78;48.60;49986.44;4883984;29;20033;-72
2022/04/14 10:03:20;;;;;;;5.32;3.10;;;;;;;-149.78;45.52;49955.16;4895325;29;20047;-70
2022/04/14 10:05:48;;;;;;;3.35;2.00;;;;;;;-149.78;43.88;49929.72;4879013;29;20037;-70
2022/04/14 10:08:15;;;;;;;3.97;2.30;;;;;;;-149.78;43.83;49966.88;4878874;29;20033;-69
2022/04/14 10:10:43;;;;;;;7.10;2.17;;;;;;;-149.78;43.90;49923.88;4892759;29;20128;-69
2022/04/14 10:13:13;;;;;;;5.75;2.50;;;;;;;-149.78;44.83;49939.50;4877697;29;20111;-70
2022/04/14 10:15:41;;;;;;;5.00;2.60;;;;;;;-149.78;46.35;49962.97;4895032;29;20048;-70
2022/04/14 10:18:10;;;;;;;4.03;1.85;;;;;;;-149.78;44.68;49937.56;4890765;29;20042;-70
2022/04/14 10:20:38;;;;;;;5.03;2.50;;;;;;;-149.78;44.42;49986.44;4878665;29;20071;-70
2022/04/14 10:23:04;;;;;;;3.42;1.98;;;;;;;-149.78;45.50;49974.72;4878734;29;20037;-70
2022/04/14 10:25:32;;;;;;;2.97;2.08;;;;;;;-149.78;46.35;49998.19;4880636;29;20430;-73
2022/04/14 10:28:00;;;;;;;4.43;2.13;;;;;;;-149.78;48.58;49964.94;4888081;29;20369;-70
2022/04/14 10:30:26;;;;;;;2.65;1.88;;;;;;;-149.78;46.69;49982.53;4883893;29;20029;-70
2022/04/14 10:32:56;;;;;;;3.92;2.25;;;;;;;-149.78;47.94;49978.63;4883871;29;20033;-70
2022/04/14 10:35:29;;;;;;;4.03;2.13;;;;;;;-149.78;47.44;50002.09;4893722;29;20080;-70
2022/04/14 10:38:43;;;;;;;6.13;2.40;;;;;;;-149.78;49.00;50019.69;4882792;29;20500;-70
2022/04/14 10:41:21;;;;;;;5.05;2.28;;;;;;;-149.78;47.92;49990.34;4857893;29;20090;-70
2022/04/14 10:43:48;;;;;;;3.13;1.90;;;;;;;-149.78;49.06;49998.19;4865398;29;20079;-70
2022/04/14 10:46:17;;;;;;;4.40;1.80;;;;;;;-149.78;49.27;50029.47;4867909;29;20095;-70
2022/04/14 10:48:44;;;;;;;3.33;2.10;;;;;;;-149.78;48.74;49998.19;4891552;29;20040;-69
2022/04/14 10:51:28;;;;;;;2.60;1.80;;;;;;;-149.78;47.56;49972.75;4881603;29;20107;-70
2022/04/14 10:54:03;;;;;;;2.67;1.55;;;;;;;-149.78;48.91;50033.38;4879444;29;20048;-70
2022/04/14 10:56:41;;;;;;;6.15;1.80;;;;;;;-149.78;48.39;49982.53;4882273;29;20041;-70
2022/04/14 10:59:11;;;;;;;3.50;2.17;;;;;;;-149.78;49.67;50009.91;4881888;29;20044;-70
2022/04/14 11:01:59;;;;;;;3.85;2.50;;;;;;;-149.78;51.04;50037.28;4896795;29;20037;-70